Anaktuvuk Pass Airport Anaktuvuk Pass US
ICAO: PAKP
IATA:
Category: Medium
Scheduled Services:

Elevation: 2102 ft
TransAlt. 18000 ft.

Airport Communications:
AWOS 3:135.75
ANCHORAGE CNTR:124.6
CTAF:122.8
DEADHORSE RDO:122.15

PAKP Zoom In..

If you have problems with the map follow the link
https://www.worldairports.se/pages/airport.php?
ICAO=PAKP

Runways:

(A) RW 02 length 4800 ft width 100 ft
---- / hdg 17

(B) RW 20 length 4800 ft width 100 ft
---- / hdg 197

Location; PAKP
Day. 24 / Time. 10.56 Zulu
* Altimeter: 29.84
* Temperature: -04° c. -24.8°f.
* Wind from: 240° Speed 13 kn.
Dewpoint: -07° c.
Visibility: 10 Statute Miles.
Clouds: Clear (automated report).

PAKP 241056Z AUTO 24013KT 10SM CLR M04/M07 A2984 RMK AO2 SLP151 T10441072 FZRANO


Wind From 240°
Speed 13 kn.

 
 
jpsmedia.com for Web Design worldairports.se 2019   terms of use